createdAt,value
2022-11-25T00:00:40.908Z,38.17
2022-11-25T00:04:40.589Z,47.13
2022-11-25T00:08:41.081Z,45.72
2022-11-25T00:12:40.474Z,42.7
2022-11-25T00:16:43.753Z,46.65
2022-11-25T00:20:40.485Z,44.17
2022-11-25T00:24:40.785Z,46.95
2022-11-25T00:28:40.609Z,47.83
2022-11-25T00:32:40.533Z,33.38
2022-11-25T00:36:40.533Z,41.05
2022-11-25T00:40:40.520Z,43.72
2022-11-25T00:44:41.302Z,39.4
2022-11-25T00:48:40.470Z,42.95
2022-11-25T00:52:40.540Z,38.57
2022-11-25T00:56:40.320Z,44.83
2022-11-25T01:00:40.572Z,41.9
2022-11-25T01:04:40.439Z,41.6
2022-11-25T01:08:40.575Z,49.05
2022-11-25T01:12:40.421Z,46.4
2022-11-25T01:16:40.735Z,47.4
2022-11-25T01:20:40.449Z,38.93
2022-11-25T01:24:40.781Z,36.43
2022-11-25T01:28:40.343Z,51.13
2022-11-25T01:32:39.854Z,38.63
2022-11-25T01:36:40.482Z,38.5
2022-11-25T01:40:40.469Z,42.17
2022-11-25T01:44:40.752Z,38.97
2022-11-25T01:48:40.475Z,38.97
2022-11-25T01:52:40.585Z,37.53
2022-11-25T01:56:40.454Z,45.8
2022-11-25T02:00:40.553Z,40.83
2022-11-25T02:04:40.583Z,64.47
2022-11-25T02:08:40.503Z,42.67
2022-11-25T02:12:41.240Z,39.17
2022-11-25T02:16:40.481Z,43.27
2022-11-25T02:20:40.782Z,51.2
2022-11-25T02:24:40.564Z,42
2022-11-25T02:28:40.705Z,51.77
2022-11-25T02:32:40.510Z,39.1
2022-11-25T02:36:40.432Z,50.53
2022-11-25T02:40:40.753Z,42.93
2022-11-25T02:44:40.711Z,56.27
2022-11-25T02:49:07.346Z,51.2
2022-11-25T02:52:40.562Z,49.03
2022-11-25T02:56:39.741Z,33.1
2022-11-25T03:00:40.500Z,38.63
2022-11-25T03:04:40.525Z,41.9
2022-11-25T03:08:40.760Z,37.83
2022-11-25T03:12:41.279Z,35.9
2022-11-25T03:16:41.348Z,36.03
2022-11-25T03:20:40.559Z,40.13
2022-11-25T03:24:40.425Z,35.53
2022-11-25T03:28:40.719Z,35.17
2022-11-25T03:32:40.445Z,46.3
2022-11-25T03:36:40.618Z,42.47
2022-11-25T03:40:40.480Z,35.17
2022-11-25T03:44:40.882Z,38
2022-11-25T03:48:40.305Z,41.3
2022-11-25T03:52:40.852Z,33.13
2022-11-25T03:56:40.328Z,43.4
2022-11-25T04:00:40.434Z,40.33
2022-11-25T04:04:40.434Z,44.87
2022-11-25T04:08:40.420Z,40.63
2022-11-25T04:12:40.486Z,44.33
2022-11-25T04:16:40.659Z,30.63
2022-11-25T04:20:40.461Z,32.6
2022-11-25T04:24:41.194Z,37.9
2022-11-25T04:28:40.485Z,31.67
2022-11-25T04:32:40.495Z,36.17
2022-11-25T04:36:40.617Z,33.43
2022-11-25T04:40:40.367Z,30.53
2022-11-25T04:44:40.543Z,42.27
2022-11-25T04:48:40.574Z,40.57
2022-11-25T04:52:40.521Z,44.8
2022-11-25T04:56:40.514Z,35.2
2022-11-25T05:00:39.725Z,44.6
2022-11-25T05:04:40.573Z,33.8
2022-11-25T05:08:40.624Z,44.03
2022-11-25T05:12:40.558Z,39.1
2022-11-25T05:16:39.842Z,33.97
2022-11-25T05:20:41.224Z,31.13
2022-11-25T05:24:40.549Z,41.33
2022-11-25T05:28:40.637Z,44.3
2022-11-25T05:32:40.745Z,28.57
2022-11-25T05:36:40.796Z,38.57
2022-11-25T05:40:40.606Z,37.27
2022-11-25T05:44:40.447Z,39.33
2022-11-25T05:48:40.513Z,30.4
2022-11-25T05:52:40.477Z,42.43
2022-11-25T05:56:39.752Z,36.3
2022-11-25T06:00:40.678Z,36.13
2022-11-25T06:04:40.454Z,43
2022-11-25T06:08:40.642Z,47.73
2022-11-25T06:12:41.153Z,39.83
2022-11-25T06:16:40.415Z,56.43
2022-11-25T06:20:40.205Z,48.6
2022-11-25T06:24:40.858Z,39.63
2022-11-25T06:28:40.458Z,49.67
2022-11-25T06:32:40.446Z,34.8
2022-11-25T06:36:40.455Z,35.27
2022-11-25T06:40:40.423Z,42.7
2022-11-25T06:44:41.282Z,45.4
2022-11-25T06:48:40.443Z,53.5
2022-11-25T06:52:40.496Z,43.33
2022-11-25T06:56:40.503Z,44.8
2022-11-25T07:00:41.269Z,45.9
2022-11-25T07:04:40.464Z,43.37
2022-11-25T07:08:40.480Z,42.07
2022-11-25T07:12:40.756Z,36.7
2022-11-25T07:16:41.817Z,34.1
2022-11-25T07:20:41.099Z,38.43
2022-11-25T07:24:40.468Z,40.07
2022-11-25T07:28:40.550Z,42.43
2022-11-25T07:32:40.468Z,43.93
2022-11-25T07:36:40.621Z,47.17
2022-11-25T07:40:40.045Z,42.23
2022-11-25T07:44:40.243Z,38.27
2022-11-25T07:48:40.553Z,46.97
2022-11-25T07:52:40.569Z,39.77
2022-11-25T07:56:40.460Z,35.67
2022-11-25T08:00:40.638Z,32.37
2022-11-25T08:04:40.601Z,28.6
2022-11-25T08:08:40.448Z,30.67
2022-11-25T08:12:40.524Z,31.5
2022-11-25T08:16:40.584Z,32
2022-11-25T08:20:40.742Z,25.45
2022-11-25T08:24:40.570Z,25.67
2022-11-25T08:28:40.701Z,21.58
2022-11-25T08:32:40.596Z,37.45
2022-11-25T08:36:45.053Z,22.17
2022-11-25T08:40:41.264Z,29.85
2022-11-25T08:44:40.557Z,28.8
2022-11-25T08:48:40.668Z,22.7
2022-11-25T08:52:39.990Z,26.87
2022-11-25T08:56:40.693Z,22.6
2022-11-25T09:00:40.636Z,17.83
2022-11-25T09:04:40.803Z,22.2
2022-11-25T09:08:40.449Z,27.52
2022-11-25T09:12:40.771Z,24.33
2022-11-25T09:16:40.646Z,18.85
2022-11-25T09:20:40.850Z,15.93
2022-11-25T09:24:40.552Z,18.73
2022-11-25T09:28:40.788Z,20.85
2022-11-25T09:32:40.584Z,11.77
2022-11-25T09:36:40.644Z,23.25
2022-11-25T09:40:40.568Z,18.62
2022-11-25T09:44:40.901Z,12.93
2022-11-25T09:48:40.522Z,18.12
2022-11-25T09:52:40.736Z,24.63
2022-11-25T09:56:40.488Z,18.8
2022-11-25T10:00:39.421Z,16.27
2022-11-25T10:04:40.509Z,13.77
2022-11-25T10:08:40.534Z,11.55
2022-11-25T10:12:40.494Z,8.68
2022-11-25T10:16:40.356Z,11.68
2022-11-25T10:20:41.028Z,8.8
2022-11-25T10:24:41.477Z,9.3
2022-11-25T10:28:40.504Z,15.25
2022-11-25T10:32:40.836Z,6.78
2022-11-25T10:36:40.606Z,13.1
2022-11-25T10:40:40.472Z,10.27
2022-11-25T10:44:41.011Z,8.43
2022-11-25T10:48:44.222Z,9.57
2022-11-25T10:52:40.846Z,11.2
2022-11-25T10:56:40.045Z,11.8
2022-11-25T11:00:41.093Z,10.8
2022-11-25T11:04:40.528Z,8.07
2022-11-25T11:08:40.699Z,7.87
2022-11-25T11:12:40.520Z,10.85
2022-11-25T11:16:40.335Z,11.12
2022-11-25T11:20:40.514Z,12.3
2022-11-25T11:24:41.074Z,7.9
2022-11-25T11:28:40.247Z,10.18
2022-11-25T11:32:40.665Z,7.3
2022-11-25T11:36:40.469Z,13.02
2022-11-25T11:40:40.553Z,11.18
2022-11-25T11:44:40.590Z,7.87
2022-11-25T11:48:40.629Z,9.45
2022-11-25T11:52:40.407Z,8.73
2022-11-25T11:56:40.777Z,17.15
2022-11-25T12:00:40.563Z,6.7
2022-11-25T12:04:41.154Z,10.13
2022-11-25T12:08:40.908Z,13.8
2022-11-25T12:12:40.495Z,8.23
2022-11-25T12:16:40.726Z,10.13
2022-11-25T12:20:40.502Z,9.15
2022-11-25T12:24:40.453Z,10.75
2022-11-25T12:28:40.429Z,10.1
2022-11-25T12:32:40.677Z,9
2022-11-25T12:36:40.614Z,6.85
2022-11-25T12:40:40.731Z,8.57
2022-11-25T12:44:40.548Z,7.22
2022-11-25T12:48:40.498Z,9.57
2022-11-25T12:52:40.544Z,8.43
2022-11-25T12:56:40.266Z,12.57
2022-11-25T13:00:42.833Z,7.9
2022-11-25T13:04:40.445Z,6.78
2022-11-25T13:08:40.624Z,5.6
2022-11-25T13:12:40.802Z,17.55
2022-11-25T13:16:40.950Z,9.5
2022-11-25T13:20:40.673Z,13.13
2022-11-25T13:24:40.325Z,11
2022-11-25T13:28:40.433Z,16.23
2022-11-25T13:32:40.766Z,13.45
2022-11-25T13:36:40.347Z,9.15
2022-11-25T13:40:40.862Z,9.85
2022-11-25T13:44:40.550Z,5.82
2022-11-25T13:48:40.452Z,7.1
2022-11-25T13:52:41.137Z,14.18
2022-11-25T13:56:40.429Z,10.63
2022-11-25T14:00:41.013Z,15.55
2022-11-25T14:04:40.913Z,10.15
2022-11-25T14:08:40.519Z,10.32
2022-11-25T14:12:39.560Z,12.2
2022-11-25T14:16:40.740Z,18.52
2022-11-25T14:20:40.319Z,15.85
2022-11-25T14:24:40.625Z,18
2022-11-25T14:28:40.444Z,18.4
2022-11-25T14:32:40.316Z,10.93
2022-11-25T14:36:40.525Z,16.23
2022-11-25T14:40:40.974Z,12.13
2022-11-25T14:44:40.438Z,20.2
2022-11-25T14:48:40.708Z,17.73
2022-11-25T14:52:40.609Z,8.1
2022-11-25T14:56:40.620Z,8.1
2022-11-25T15:00:40.561Z,8.02
2022-11-25T15:04:40.523Z,12
2022-11-25T15:08:40.887Z,18.42
2022-11-25T15:12:46.344Z,12.82
2022-11-25T15:16:40.467Z,13.93
2022-11-25T15:20:40.456Z,14.93
2022-11-25T15:24:40.590Z,14
2022-11-25T15:28:40.646Z,15.2
2022-11-25T15:32:41.211Z,13.65
2022-11-25T15:36:40.478Z,12.65
2022-11-25T15:40:40.568Z,18.1
2022-11-25T15:44:40.448Z,20.95
2022-11-25T15:48:40.348Z,12.5
2022-11-25T15:52:40.507Z,13.13
2022-11-25T15:56:40.578Z,16.17
2022-11-25T16:00:41.096Z,20.12
2022-11-25T16:04:40.977Z,19.37
2022-11-25T16:08:40.556Z,14.27
2022-11-25T16:12:39.929Z,14.27
2022-11-25T16:16:40.445Z,15.55
2022-11-25T16:20:40.845Z,15.18
2022-11-25T16:24:40.517Z,15.52
2022-11-25T16:28:40.554Z,17.62
2022-11-25T16:32:40.583Z,18.05
2022-11-25T16:36:40.593Z,22.02
2022-11-25T16:40:40.813Z,20.52
2022-11-25T16:44:41.052Z,20.15
2022-11-25T16:48:40.474Z,19.83
2022-11-25T16:52:40.190Z,21.7
2022-11-25T16:56:40.402Z,18.62
2022-11-25T17:00:40.673Z,14.52
2022-11-25T17:04:40.536Z,16.17
2022-11-25T17:08:40.461Z,17.58
2022-11-25T17:12:40.596Z,27.08
2022-11-25T17:16:40.657Z,21.02
2022-11-25T17:20:40.406Z,13.27
2022-11-25T17:24:40.605Z,22.98
2022-11-25T17:28:40.541Z,20.62
2022-11-25T17:32:40.696Z,20.58
2022-11-25T17:36:40.530Z,21.02
2022-11-25T17:40:39.772Z,18.5
2022-11-25T17:44:40.874Z,12.37
2022-11-25T17:48:40.542Z,17.83
2022-11-25T17:52:40.854Z,15.27
2022-11-25T17:56:39.853Z,10.35
2022-11-25T18:00:41.170Z,13.02
2022-11-25T18:04:41.034Z,13.23
2022-11-25T18:08:40.907Z,15.75
2022-11-25T18:12:40.512Z,15.3
2022-11-25T18:16:40.607Z,13.02
2022-11-25T18:20:40.626Z,9.02
2022-11-25T18:24:40.654Z,19.17
2022-11-25T18:28:39.404Z,12.68
2022-11-25T18:32:40.569Z,13.27
2022-11-25T18:36:40.341Z,15.27
2022-11-25T18:40:40.674Z,18.48
2022-11-25T18:44:40.778Z,15.32
2022-11-25T18:48:40.527Z,13.65
2022-11-25T18:52:40.563Z,16.48
2022-11-25T18:56:40.524Z,17.85
2022-11-25T19:00:40.684Z,16.02
2022-11-25T19:04:40.505Z,15.27
2022-11-25T19:08:41.009Z,16.48
2022-11-25T19:12:40.777Z,9.7
2022-11-25T19:16:40.497Z,15.13
2022-11-25T19:20:40.243Z,15.48
2022-11-25T19:24:41.190Z,15.18
2022-11-25T19:28:40.406Z,12.45
2022-11-25T19:32:40.726Z,15.38
2022-11-25T19:36:41.289Z,20.15
2022-11-25T19:40:40.659Z,16.83
2022-11-25T19:44:40.502Z,19.17
2022-11-25T19:48:40.898Z,12.8
2022-11-25T19:52:40.792Z,19.8
2022-11-25T19:56:39.889Z,14.8
2022-11-25T20:00:41.015Z,23
2022-11-25T20:04:41.281Z,20.8
2022-11-25T20:08:40.875Z,20.58
2022-11-25T20:12:40.383Z,25.02
2022-11-25T20:16:40.529Z,25.05
2022-11-25T20:20:40.511Z,21.65
2022-11-25T20:24:39.996Z,21.98
2022-11-25T20:28:40.437Z,23.7
2022-11-25T20:32:40.504Z,29.1
2022-11-25T20:36:40.676Z,33.95
2022-11-25T20:40:40.273Z,27.3
2022-11-25T20:44:40.521Z,28.8
2022-11-25T20:48:40.978Z,23.55
2022-11-25T20:52:40.601Z,25.58
2022-11-25T20:56:40.452Z,27
2022-11-25T21:00:40.687Z,24.42
2022-11-25T21:04:40.898Z,33.53
2022-11-25T21:08:40.433Z,42.45
2022-11-25T21:12:40.509Z,28.58
2022-11-25T21:16:40.577Z,26.48
2022-11-25T21:20:40.549Z,43.9
2022-11-25T21:24:40.853Z,34.4
2022-11-25T21:28:40.476Z,32.2
2022-11-25T21:32:40.553Z,27.85
2022-11-25T21:36:40.502Z,32.08
2022-11-25T21:40:40.593Z,28.35
2022-11-25T21:44:40.646Z,29.6
2022-11-25T21:48:40.417Z,36.53
2022-11-25T21:52:40.518Z,33.65
2022-11-25T21:56:40.559Z,34.08
2022-11-25T22:00:40.681Z,31.17
2022-11-25T22:04:40.506Z,22.35
2022-11-25T22:08:40.511Z,29.23
2022-11-25T22:12:41.529Z,30.55
2022-11-25T22:16:40.413Z,22.2
2022-11-25T22:20:40.449Z,30.77
2022-11-25T22:24:40.700Z,24.52
2022-11-25T22:28:40.421Z,23.25
2022-11-25T22:32:40.562Z,26.23
2022-11-25T22:36:40.584Z,25.52
2022-11-25T22:40:40.670Z,29.48
2022-11-25T22:44:40.803Z,23.48
2022-11-25T22:48:40.264Z,28.95
2022-11-25T22:52:41.239Z,23.42
2022-11-25T22:56:40.527Z,24.75
2022-11-25T23:00:40.352Z,27.52
2022-11-25T23:04:40.494Z,28.73
2022-11-25T23:08:40.615Z,29.58
2022-11-25T23:12:40.528Z,25.98
2022-11-25T23:16:40.343Z,22.42
2022-11-25T23:20:40.627Z,22.13
2022-11-25T23:24:40.548Z,33.05
2022-11-25T23:28:40.567Z,26.83
2022-11-25T23:32:41.038Z,27.42
2022-11-25T23:36:40.667Z,30.85
2022-11-25T23:40:40.286Z,32.92
2022-11-25T23:44:40.499Z,32.55
2022-11-25T23:48:40.433Z,29.6
2022-11-25T23:52:41.106Z,30.15
2022-11-25T23:56:40.733Z,38.2
